Time;durP1;ratioP1;P1;durP2;ratioP2;P2;SDS_P1;SDS_P2;PMS_P1;PMS_P2;Temp;Humidity;BMP_temperature;BMP_pressure;BME280_temperature;BME280_humidity;BME280_pressure;Samples;Min_cycle;Max_cycle;Signal;HPM_P1;HPM_P2
2022/05/08 00:01:56;;;;;;;10.10;8.93;;;;;;;;;;5033724;28;20485;-77
2022/05/08 00:04:23;;;;;;;10.40;8.82;;;;;;;;;;5034073;28;20028;-78
2022/05/08 00:06:48;;;;;;;13.07;9.13;;;;;;;;;;5034076;28;20036;-77
2022/05/08 00:09:19;;;;;;;12.93;9.27;;;;;;;;;;5033825;28;20021;-81
2022/05/08 00:11:45;;;;;;;9.88;8.70;;;;;;;;;;5033515;28;20041;-78
2022/05/08 00:14:10;;;;;;;10.98;8.90;;;;;;;;;;5033616;28;20371;-88
2022/05/08 00:16:38;;;;;;;13.48;9.02;;;;;;;;;;5015830;28;20041;-85
2022/05/08 00:19:03;;;;;;;14.30;9.23;;;;;;;;;;5033591;28;20021;-84
2022/05/08 00:24:35;;;;;;;12.13;9.35;;;;;;;;;;5033419;28;20087;-85
2022/05/08 00:27:02;;;;;;;13.15;10.43;;;;;;;;;;5015801;28;20142;-84
2022/05/08 00:29:28;;;;;;;12.30;10.50;;;;;;;;;;5020147;28;20404;-83
2022/05/08 00:31:53;;;;;;;15.32;10.32;;;;;;;;;;5040009;28;20017;-85
2022/05/08 00:34:19;;;;;;;13.23;10.35;;;;;;;;;;5040321;28;20033;-82
2022/05/08 00:37:01;;;;;;;12.67;10.10;;;;;;;;;;5040039;28;20026;-84
2022/05/08 00:39:27;;;;;;;16.45;10.45;;;;;;;;;;5039960;28;20268;-82
2022/05/08 00:42:03;;;;;;;11.80;9.75;;;;;;;;;;5039933;28;20032;-83
2022/05/08 00:44:29;;;;;;;16.48;11.38;;;;;;;;;;5040170;28;20466;-81
2022/05/08 00:47:27;;;;;;;17.20;12.40;;;;;;;;;;5039945;28;20025;-84
2022/05/08 00:49:53;;;;;;;17.40;11.88;;;;;;;;;;5039961;28;20692;-81
2022/05/08 00:55:21;;;;;;;17.48;11.68;;;;;;;;;;5040169;28;20029;-84
2022/05/08 00:58:00;;;;;;;15.68;11.65;;;;;;;;;;5040116;28;20024;-78
2022/05/08 01:00:25;;;;;;;15.95;12.02;;;;;;;;;;5040254;28;20477;-81
2022/05/08 01:02:51;;;;;;;15.65;11.48;;;;;;;;;;5039884;28;20078;-81
2022/05/08 01:05:17;;;;;;;19.88;12.70;;;;;;;;;;5039784;28;20049;-80
2022/05/08 01:07:44;;;;;;;19.55;13.32;;;;;;;;;;5039998;28;20017;-79
2022/05/08 01:10:09;;;;;;;19.85;14.35;;;;;;;;;;5039580;28;20029;-79
2022/05/08 01:12:35;;;;;;;21.33;15.30;;;;;;;;;;5040282;28;20029;-78
2022/05/08 01:15:20;;;;;;;20.83;14.85;;;;;;;;;;5040194;28;20032;-78
2022/05/08 01:20:49;;;;;;;20.23;14.95;;;;;;;;;;5040002;28;20038;-79
2022/05/08 01:23:19;;;;;;;20.40;14.75;;;;;;;;;;5022122;28;20036;-79
2022/05/08 01:25:48;;;;;;;17.00;13.52;;;;;;;;;;5039647;28;20037;-78
2022/05/08 01:28:16;;;;;;;19.30;13.50;;;;;;;;;;5039621;28;20021;-78
2022/05/08 01:30:43;;;;;;;17.90;13.85;;;;;;;;;;5039735;28;20112;-78
2022/05/08 01:33:10;;;;;;;20.90;15.13;;;;;;;;;;5040053;28;20115;-78
2022/05/08 01:35:36;;;;;;;24.27;16.23;;;;;;;;;;5039653;28;20112;-80
2022/05/08 01:38:02;;;;;;;25.15;16.17;;;;;;;;;;5039445;28;20612;-80
2022/05/08 01:40:28;;;;;;;20.98;15.80;;;;;;;;;;5019573;28;20040;-79
2022/05/08 01:43:03;;;;;;;22.00;15.27;;;;;;;;;;5036352;28;20029;-83
2022/05/08 01:45:29;;;;;;;20.40;15.18;;;;;;;;;;5036765;28;20482;-82
2022/05/08 01:48:22;;;;;;;16.23;11.73;;;;;;;;;;5036081;28;20024;-82
2022/05/08 01:50:48;;;;;;;14.05;11.57;;;;;;;;;;5036682;28;20374;-82
2022/05/08 01:53:13;;;;;;;14.93;11.68;;;;;;;;;;5018405;28;20087;-83
2022/05/08 01:55:39;;;;;;;17.13;12.70;;;;;;;;;;5018361;28;20029;-83
2022/05/08 01:58:05;;;;;;;14.90;13.35;;;;;;;;;;5035981;28;20021;-83
2022/05/08 02:00:30;;;;;;;15.95;12.57;;;;;;;;;;5018270;28;20052;-83
2022/05/08 02:05:59;;;;;;;15.50;12.05;;;;;;;;;;5036051;28;20108;-83
2022/05/08 02:08:27;;;;;;;14.93;12.38;;;;;;;;;;5035858;28;20049;-83
2022/05/08 02:11:11;;;;;;;16.30;12.85;;;;;;;;;;5017907;28;20045;-83
2022/05/08 02:13:37;;;;;;;17.63;13.90;;;;;;;;;;5018118;28;20033;-81
2022/05/08 02:16:33;;;;;;;16.63;13.38;;;;;;;;;;5035776;28;20496;-82
2022/05/08 02:18:58;;;;;;;16.75;13.57;;;;;;;;;;5035925;28;20036;-85
2022/05/08 02:21:53;;;;;;;18.77;12.87;;;;;;;;;;5035862;28;20033;-83
2022/05/08 02:24:18;;;;;;;14.35;12.02;;;;;;;;;;5035836;28;20276;-83
2022/05/08 02:26:53;;;;;;;12.77;10.80;;;;;;;;;;5035743;28;20018;-82
2022/05/08 02:29:18;;;;;;;14.63;11.60;;;;;;;;;;5035495;28;20696;-83
2022/05/08 02:34:47;;;;;;;14.95;12.23;;;;;;;;;;5035507;28;20034;-82
2022/05/08 02:37:19;;;;;;;14.45;11.45;;;;;;;;;;5035316;28;20033;-82
2022/05/08 02:39:45;;;;;;;15.32;11.20;;;;;;;;;;5035457;28;20473;-80
2022/05/08 02:42:16;;;;;;;13.73;10.97;;;;;;;;;;5035284;28;20067;-80
2022/05/08 02:44:41;;;;;;;17.65;12.85;;;;;;;;;;5035691;28;20271;-80
2022/05/08 02:47:13;;;;;;;18.03;12.93;;;;;;;;;;5035195;28;20027;-82
2022/05/08 02:49:39;;;;;;;14.45;12.18;;;;;;;;;;5035114;28;20276;-81
2022/05/08 02:52:04;;;;;;;15.87;12.23;;;;;;;;;;5034758;28;20071;-81
2022/05/08 02:54:29;;;;;;;15.35;12.00;;;;;;;;;;5035310;28;20329;-81
2022/05/08 03:00:00;;;;;;;14.95;12.10;;;;;;;;;;5034950;28;20687;-83
2022/05/08 03:02:26;;;;;;;15.95;12.35;;;;;;;;;;5016943;28;20374;-77
2022/05/08 03:04:51;;;;;;;16.90;13.18;;;;;;;;;;5035070;28;20079;-78
2022/05/08 03:07:17;;;;;;;18.40;12.97;;;;;;;;;;5034829;28;20032;-77
2022/05/08 03:09:42;;;;;;;17.30;14.23;;;;;;;;;;5035261;28;20377;-77
2022/05/08 03:12:08;;;;;;;17.48;13.75;;;;;;;;;;5034440;28;20072;-78
2022/05/08 03:14:35;;;;;;;16.88;13.25;;;;;;;;;;5034616;28;20069;-78
2022/05/08 03:17:00;;;;;;;16.50;13.30;;;;;;;;;;5034607;28;20029;-79
2022/05/08 03:19:26;;;;;;;18.20;13.90;;;;;;;;;;5016846;28;20033;-80
2022/05/08 03:21:51;;;;;;;19.10;13.48;;;;;;;;;;5034654;28;20014;-84
2022/05/08 03:24:24;;;;;;;18.38;13.20;;;;;;;;;;5016898;28;20033;-80
2022/05/08 03:26:49;;;;;;;18.40;13.80;;;;;;;;;;5034984;28;20040;-82
2022/05/08 03:29:14;;;;;;;16.95;13.63;;;;;;;;;;5034298;28;20017;-81
2022/05/08 03:31:41;;;;;;;19.15;13.98;;;;;;;;;;5034426;28;20029;-81
2022/05/08 03:34:07;;;;;;;17.70;13.40;;;;;;;;;;5034449;28;20018;-81
2022/05/08 03:36:32;;;;;;;18.48;13.93;;;;;;;;;;5016495;28;20268;-81
2022/05/08 03:42:01;;;;;;;15.50;12.85;;;;;;;;;;5017345;28;20147;-83
2022/05/08 03:44:27;;;;;;;17.25;12.63;;;;;;;;;;5034174;28;20048;-80
2022/05/08 03:46:52;;;;;;;15.35;12.93;;;;;;;;;;5034107;28;20025;-81
2022/05/08 03:49:18;;;;;;;14.67;12.47;;;;;;;;;;5033973;28;20025;-77
2022/05/08 03:51:44;;;;;;;16.15;13.20;;;;;;;;;;5034568;28;20283;-81
2022/05/08 03:57:12;;;;;;;16.70;12.57;;;;;;;;;;5016162;28;20034;-81
2022/05/08 03:59:47;;;;;;;17.53;12.07;;;;;;;;;;5034132;28;20029;-81
2022/05/08 04:02:12;;;;;;;15.13;12.15;;;;;;;;;;5034344;28;20272;-80
2022/05/08 04:05:03;;;;;;;14.77;12.30;;;;;;;;;;5033186;28;20035;-80
2022/05/08 04:07:28;;;;;;;;;;;;;;;;;;5034480;28;20284;-77
2022/05/08 04:09:56;;;;;;;15.07;11.77;;;;;;;;;;5033134;28;19927;-78
2022/05/08 04:12:23;;;;;;;14.50;11.95;;;;;;;;;;5033972;28;20527;-80
2022/05/08 04:17:51;;;;;;;14.75;12.30;;;;;;;;;;5034181;28;20033;-83
2022/05/08 04:20:16;;;;;;;15.30;12.17;;;;;;;;;;5033885;28;20033;-81
2022/05/08 04:25:26;;;;;;;14.38;11.90;;;;;;;;;;5033833;28;20047;-82
2022/05/08 04:27:51;;;;;;;13.83;12.43;;;;;;;;;;5033713;28;20708;-80
2022/05/08 04:30:29;;;;;;;14.63;12.25;;;;;;;;;;5033695;28;20264;-79
2022/05/08 04:32:55;;;;;;;15.45;12.52;;;;;;;;;;5033324;28;20037;-81
2022/05/08 04:35:20;;;;;;;19.77;13.60;;;;;;;;;;5033295;28;20025;-79
2022/05/08 04:37:50;;;;;;;16.42;12.90;;;;;;;;;;5015776;28;20279;-81
2022/05/08 04:40:16;;;;;;;17.38;13.20;;;;;;;;;;5033464;28;20064;-78
2022/05/08 04:42:41;;;;;;;14.60;11.90;;;;;;;;;;5033267;28;20029;-78
2022/05/08 04:48:09;;;;;;;15.23;11.32;;;;;;;;;;5033252;28;20100;-79
2022/05/08 04:50:35;;;;;;;17.00;12.23;;;;;;;;;;5033185;28;20056;-80
2022/05/08 04:53:09;;;;;;;14.18;11.15;;;;;;;;;;5033160;28;20075;-85
2022/05/08 04:55:35;;;;;;;15.90;11.77;;;;;;;;;;5033532;28;20461;-84
2022/05/08 04:58:00;;;;;;;17.15;11.95;;;;;;;;;;5033310;28;20105;-82
2022/05/08 05:00:26;;;;;;;15.40;12.07;;;;;;;;;;5032939;28;20120;-71
2022/05/08 05:02:52;;;;;;;14.25;11.70;;;;;;;;;;5033099;28;20060;-79
2022/05/08 05:05:17;;;;;;;13.38;11.60;;;;;;;;;;5015551;28;20369;-78
2022/05/08 05:07:42;;;;;;;14.90;11.73;;;;;;;;;;5033207;28;20026;-77
2022/05/08 05:10:09;;;;;;;18.13;11.75;;;;;;;;;;5032910;28;20036;-77
2022/05/08 05:12:35;;;;;;;16.73;11.98;;;;;;;;;;5032808;28;20163;-77
2022/05/08 05:15:01;;;;;;;16.65;12.38;;;;;;;;;;5034223;28;20025;-78
2022/05/08 05:17:26;;;;;;;15.95;13.05;;;;;;;;;;5036942;28;20028;-78
2022/05/08 05:19:52;;;;;;;15.23;12.30;;;;;;;;;;5036761;28;20029;-78
2022/05/08 05:22:21;;;;;;;16.33;13.57;;;;;;;;;;5036826;28;20465;-78
2022/05/08 05:24:46;;;;;;;15.73;12.63;;;;;;;;;;5036681;28;20030;-79
2022/05/08 05:27:12;;;;;;;17.95;13.70;;;;;;;;;;5036777;28;20020;-79
2022/05/08 05:29:37;;;;;;;15.88;13.90;;;;;;;;;;5036600;28;20030;-79
2022/05/08 05:32:02;;;;;;;15.15;13.07;;;;;;;;;;5036412;28;20017;-78
2022/05/08 05:34:32;;;;;;;16.00;13.70;;;;;;;;;;5019202;28;20029;-79
2022/05/08 05:36:57;;;;;;;23.88;16.83;;;;;;;;;;5036389;28;20096;-79
2022/05/08 05:39:32;;;;;;;20.55;15.82;;;;;;;;;;5036421;28;20505;-80
2022/05/08 05:41:57;;;;;;;19.88;14.98;;;;;;;;;;5036432;28;20033;-76
2022/05/08 05:44:24;;;;;;;19.60;15.45;;;;;;;;;;5018962;28;20028;-79
2022/05/08 05:49:33;;;;;;;20.20;17.13;;;;;;;;;;5036362;28;20029;-78
2022/05/08 05:52:03;;;;;;;27.08;17.58;;;;;;;;;;5035999;28;20105;-80
2022/05/08 05:54:28;;;;;;;24.65;17.48;;;;;;;;;;5035318;28;20104;-79
2022/05/08 05:56:54;;;;;;;23.50;15.43;;;;;;;;;;5018203;28;20466;-80
2022/05/08 05:59:19;;;;;;;24.30;16.48;;;;;;;;;;5034511;28;20503;-79
2022/05/08 06:01:45;;;;;;;23.42;17.60;;;;;;;;;;5015315;28;20052;-80
2022/05/08 06:04:10;;;;;;;24.40;18.77;;;;;;;;;;5032977;28;20030;-80
2022/05/08 06:06:35;;;;;;;21.80;17.60;;;;;;;;;;5032752;28;20026;-80
2022/05/08 06:09:00;;;;;;;24.13;17.08;;;;;;;;;;5033255;28;20264;-80
2022/05/08 06:11:26;;;;;;;24.47;16.57;;;;;;;;;;5032956;28;20120;-80
2022/05/08 06:13:51;;;;;;;21.20;16.95;;;;;;;;;;5032880;28;20284;-80
2022/05/08 06:16:16;;;;;;;24.58;18.20;;;;;;;;;;5032740;28;20468;-80
2022/05/08 06:18:44;;;;;;;23.50;18.27;;;;;;;;;;5032978;28;20029;-80
2022/05/08 06:21:09;;;;;;;23.75;18.13;;;;;;;;;;5032938;28;20021;-80
2022/05/08 06:23:34;;;;;;;31.42;20.98;;;;;;;;;;5032982;28;20032;-80
2022/05/08 06:26:00;;;;;;;28.02;20.05;;;;;;;;;;5032592;28;20014;-81
2022/05/08 06:28:25;;;;;;;40.83;25.33;;;;;;;;;;5034033;28;20404;-81
2022/05/08 06:30:51;;;;;;;51.75;27.10;;;;;;;;;;5034435;28;20053;-81
2022/05/08 06:33:16;;;;;;;50.05;28.70;;;;;;;;;;5016422;28;20033;-81
2022/05/08 06:35:41;;;;;;;38.17;25.05;;;;;;;;;;5034312;28;20353;-81
2022/05/08 06:38:10;;;;;;;25.00;17.77;;;;;;;;;;5034238;28;20033;-82
2022/05/08 06:40:35;;;;;;;21.05;16.33;;;;;;;;;;5034177;28;20442;-82
2022/05/08 06:43:01;;;;;;;24.25;15.27;;;;;;;;;;5033917;28;20112;-82
2022/05/08 06:45:26;;;;;;;19.75;15.88;;;;;;;;;;5033813;28;20466;-82
2022/05/08 06:47:52;;;;;;;22.98;15.35;;;;;;;;;;5034078;28;20481;-82
2022/05/08 06:50:18;;;;;;;21.40;15.98;;;;;;;;;;5033997;28;20515;-82
2022/05/08 06:52:44;;;;;;;25.52;18.83;;;;;;;;;;5033911;28;20132;-82
2022/05/08 06:55:09;;;;;;;19.63;15.25;;;;;;;;;;5034046;28;20473;-83
2022/05/08 06:57:35;;;;;;;22.10;15.95;;;;;;;;;;5033941;28;20068;-82
2022/05/08 07:02:45;;;;;;;23.42;15.07;;;;;;;;;;5033644;28;20394;-82
2022/05/08 07:05:10;;;;;;;20.10;15.45;;;;;;;;;;5033684;28;20067;-82
2022/05/08 07:07:36;;;;;;;22.33;15.82;;;;;;;;;;5015844;28;20017;-82
2022/05/08 07:10:02;;;;;;;26.05;16.65;;;;;;;;;;5033617;28;20017;-82
2022/05/08 07:12:27;;;;;;;21.17;14.43;;;;;;;;;;5032812;28;20128;-82
2022/05/08 07:14:56;;;;;;;18.65;13.40;;;;;;;;;;5033571;28;20233;-82
2022/05/08 07:17:23;;;;;;;17.73;12.75;;;;;;;;;;5033480;28;20083;-82
2022/05/08 07:19:49;;;;;;;14.93;12.15;;;;;;;;;;5033387;28;20040;-81
2022/05/08 07:22:17;;;;;;;14.98;10.55;;;;;;;;;;5033209;28;20025;-81
2022/05/08 07:24:43;;;;;;;14.98;10.57;;;;;;;;;;5032868;28;20026;-81
2022/05/08 07:27:11;;;;;;;11.55;9.45;;;;;;;;;;5033056;28;20025;-81
2022/05/08 07:29:37;;;;;;;13.50;10.23;;;;;;;;;;5033166;28;20033;-82
2022/05/08 07:32:03;;;;;;;11.50;9.68;;;;;;;;;;5033239;28;20044;-82
2022/05/08 07:37:18;;;;;;;11.68;8.63;;;;;;;;;;5032985;28;20025;-82
2022/05/08 07:39:43;;;;;;;9.13;7.55;;;;;;;;;;5031994;28;20043;-80
2022/05/08 07:42:09;;;;;;;9.45;7.65;;;;;;;;;;5033251;28;20026;-80
2022/05/08 07:44:34;;;;;;;6.72;6.00;;;;;;;;;;5033010;28;20056;-80
2022/05/08 07:47:00;;;;;;;8.07;7.28;;;;;;;;;;5032863;28;20380;-80
2022/05/08 07:49:26;;;;;;;10.93;7.47;;;;;;;;;;5032917;28;20099;-81
2022/05/08 07:51:51;;;;;;;9.52;7.60;;;;;;;;;;5032461;28;20033;-81
2022/05/08 07:54:17;;;;;;;9.70;5.80;;;;;;;;;;5032730;28;20041;-81
2022/05/08 07:56:43;;;;;;;7.68;6.75;;;;;;;;;;5015238;28;20029;-81
2022/05/08 07:59:13;;;;;;;11.35;6.63;;;;;;;;;;5033110;28;20491;-76
2022/05/08 08:01:40;;;;;;;7.72;6.60;;;;;;;;;;5033807;28;20029;-78
2022/05/08 08:04:06;;;;;;;7.05;6.35;;;;;;;;;;5033708;28;20637;-78
2022/05/08 08:06:32;;;;;;;6.35;5.25;;;;;;;;;;5034022;28;20418;-78
2022/05/08 08:08:57;;;;;;;6.97;5.47;;;;;;;;;;5033797;28;20021;-78
2022/05/08 08:11:23;;;;;;;4.35;3.95;;;;;;;;;;5033387;28;20045;-78
2022/05/08 08:13:49;;;;;;;4.03;3.70;;;;;;;;;;5016225;28;20064;-78
2022/05/08 08:16:14;;;;;;;3.75;3.30;;;;;;;;;;5032583;28;20022;-77
2022/05/08 08:18:42;;;;;;;4.18;3.78;;;;;;;;;;5032331;28;20080;-78
2022/05/08 08:21:12;;;;;;;6.28;3.50;;;;;;;;;;5033300;28;20127;-78
2022/05/08 08:23:39;;;;;;;4.63;3.53;;;;;;;;;;5014922;28;20061;-78
2022/05/08 08:26:04;;;;;;;4.03;3.58;;;;;;;;;;5032367;28;20073;-77
2022/05/08 08:28:29;;;;;;;3.65;3.35;;;;;;;;;;5032446;28;20551;-76
2022/05/08 08:30:54;;;;;;;3.73;3.40;;;;;;;;;;5032188;28;20025;-76
2022/05/08 08:33:22;;;;;;;4.95;2.75;;;;;;;;;;5032353;28;20280;-75
2022/05/08 08:35:49;;;;;;;4.15;2.80;;;;;;;;;;5032356;28;20029;-76
2022/05/08 08:38:14;;;;;;;2.90;2.60;;;;;;;;;;5032632;28;20022;-76
2022/05/08 08:40:40;;;;;;;8.15;3.28;;;;;;;;;;5032266;28;20014;-76
2022/05/08 08:43:09;;;;;;;2.45;2.22;;;;;;;;;;5031972;28;20396;-76
2022/05/08 08:48:26;;;;;;;4.85;3.40;;;;;;;;;;5032188;28;20068;-76
2022/05/08 08:50:52;;;;;;;2.80;2.60;;;;;;;;;;5035144;28;20389;-76
2022/05/08 08:53:18;;;;;;;2.58;2.38;;;;;;;;;;5036135;28;20025;-76
2022/05/08 08:55:43;;;;;;;2.40;2.20;;;;;;;;;;5036181;28;20033;-76
2022/05/08 08:58:08;;;;;;;2.72;2.10;;;;;;;;;;5035851;28;20021;-76
2022/05/08 09:00:34;;;;;;;2.20;2.00;;;;;;;;;;5036052;28;20059;-76
2022/05/08 09:02:59;;;;;;;2.15;1.98;;;;;;;;;;5018283;28;20034;-76
2022/05/08 09:05:25;;;;;;;4.43;2.03;;;;;;;;;;5035816;28;20389;-76
2022/05/08 09:07:52;;;;;;;2.75;2.30;;;;;;;;;;5035796;28;20025;-76
2022/05/08 09:10:23;;;;;;;2.47;2.28;;;;;;;;;;5018382;28;20026;-76
2022/05/08 09:12:52;;;;;;;2.75;2.55;;;;;;;;;;5035769;28;20041;-76
2022/05/08 09:15:25;;;;;;;2.25;2.15;;;;;;;;;;5035798;28;20451;-76
2022/05/08 09:17:54;;;;;;;2.70;2.50;;;;;;;;;;5035881;28;20030;-76
2022/05/08 09:20:25;;;;;;;2.40;2.20;;;;;;;;;;5035726;28;20096;-76
2022/05/08 09:23:01;;;;;;;2.63;2.42;;;;;;;;;;5017707;28;20037;-76
2022/05/08 09:25:43;;;;;;;2.45;2.25;;;;;;;;;;5035655;28;20022;-76
2022/05/08 09:28:09;;;;;;;2.88;2.33;;;;;;;;;;5035557;28;20037;-76
2022/05/08 09:30:35;;;;;;;2.88;2.58;;;;;;;;;;5035595;28;20445;-76
2022/05/08 09:33:00;;;;;;;3.15;2.05;;;;;;;;;;5035384;28;20083;-76
2022/05/08 09:35:25;;;;;;;2.22;2.10;;;;;;;;;;5035087;28;20060;-76
2022/05/08 09:37:54;;;;;;;1.98;1.77;;;;;;;;;;5018411;28;20025;-76
2022/05/08 09:40:20;;;;;;;2.28;1.90;;;;;;;;;;5018143;28;20017;-76
2022/05/08 09:42:47;;;;;;;2.20;2.10;;;;;;;;;;5036109;28;20069;-76
2022/05/08 09:45:12;;;;;;;2.35;2.25;;;;;;;;;;5036227;28;20056;-76
2022/05/08 09:47:44;;;;;;;2.42;2.10;;;;;;;;;;5018647;28;20044;-76
2022/05/08 09:50:11;;;;;;;2.83;2.63;;;;;;;;;;5035951;28;20034;-76
2022/05/08 09:52:38;;;;;;;2.53;2.40;;;;;;;;;;5035953;28;20029;-76
2022/05/08 09:55:04;;;;;;;3.65;2.50;;;;;;;;;;5035871;28;20541;-76
2022/05/08 09:57:29;;;;;;;2.75;2.35;;;;;;;;;;5035974;28;20017;-76
2022/05/08 09:59:54;;;;;;;2.50;2.08;;;;;;;;;;5035976;28;20029;-76
2022/05/08 10:02:21;;;;;;;2.13;2.03;;;;;;;;;;5034585;28;20056;-76
2022/05/08 10:04:47;;;;;;;2.20;2.10;;;;;;;;;;5035883;28;20331;-76
2022/05/08 10:07:14;;;;;;;2.20;2.08;;;;;;;;;;5035752;28;20024;-76
2022/05/08 10:15:18;;;;;;;2.20;2.10;;;;;;;;;;5035404;28;20478;-76
2022/05/08 10:17:44;;;;;;;2.30;2.10;;;;;;;;;;5035516;28;20036;-76
2022/05/08 10:20:10;;;;;;;2.10;2.00;;;;;;;;;;5017895;28;20424;-76
2022/05/08 10:22:48;;;;;;;1.90;1.80;;;;;;;;;;5035405;28;20043;-76
2022/05/08 10:25:15;;;;;;;2.65;1.90;;;;;;;;;;5035261;28;20470;-75
2022/05/08 10:27:41;;;;;;;3.08;2.10;;;;;;;;;;5035110;28;20076;-75
2022/05/08 10:30:06;;;;;;;3.03;2.30;;;;;;;;;;5035348;28;20444;-75
2022/05/08 10:32:33;;;;;;;2.15;2.05;;;;;;;;;;5035201;28;20071;-75
2022/05/08 10:35:11;;;;;;;2.30;2.05;;;;;;;;;;5035273;28;20413;-76
2022/05/08 10:37:38;;;;;;;2.30;1.88;;;;;;;;;;5034537;28;20091;-75
2022/05/08 10:40:04;;;;;;;2.30;2.10;;;;;;;;;;5034440;28;20021;-75
2022/05/08 10:42:39;;;;;;;3.88;2.17;;;;;;;;;;5018150;28;20029;-75
2022/05/08 10:45:05;;;;;;;2.38;2.17;;;;;;;;;;5035558;28;20466;-75
2022/05/08 10:47:33;;;;;;;2.53;2.10;;;;;;;;;;5035602;28;20083;-75
2022/05/08 10:49:59;;;;;;;2.20;2.10;;;;;;;;;;5035619;28;20512;-73
2022/05/08 10:52:25;;;;;;;2.08;1.98;;;;;;;;;;5035568;28;20030;-74
2022/05/08 10:55:00;;;;;;;3.38;2.20;;;;;;;;;;5035432;28;20033;-74
2022/05/08 10:57:30;;;;;;;2.10;1.90;;;;;;;;;;5034964;28;20034;-74
2022/05/08 10:59:56;;;;;;;2.85;2.65;;;;;;;;;;5035427;28;20047;-75
2022/05/08 11:02:39;;;;;;;2.45;2.20;;;;;;;;;;5035153;28;20010;-74
2022/05/08 11:05:06;;;;;;;2.90;2.28;;;;;;;;;;5035226;28;20147;-74
2022/05/08 11:07:31;;;;;;;3.17;2.00;;;;;;;;;;5035049;28;20024;-75
2022/05/08 11:10:00;;;;;;;2.08;1.98;;;;;;;;;;5032856;28;20025;-74
2022/05/08 11:12:25;;;;;;;2.80;2.13;;;;;;;;;;5032191;28;20087;-75
2022/05/08 11:15:08;;;;;;;4.88;3.15;;;;;;;;;;5032959;28;20168;-75
2022/05/08 11:17:33;;;;;;;2.33;2.13;;;;;;;;;;5033147;28;20029;-75
2022/05/08 11:19:59;;;;;;;4.32;2.15;;;;;;;;;;5033093;28;20013;-75
2022/05/08 11:22:24;;;;;;;1.83;1.73;;;;;;;;;;5032926;28;20465;-75
2022/05/08 11:24:50;;;;;;;2.00;1.60;;;;;;;;;;5034321;28;20017;-75
2022/05/08 11:27:15;;;;;;;3.83;3.55;;;;;;;;;;5034438;28;20271;-75
2022/05/08 11:29:50;;;;;;;4.57;4.13;;;;;;;;;;5034366;28;20025;-75
2022/05/08 11:38:02;;;;;;;1.75;1.65;;;;;;;;;;5016517;28;20037;-75
2022/05/08 11:40:28;;;;;;;2.00;1.90;;;;;;;;;;5016438;28;21573;-75
2022/05/08 11:42:54;;;;;;;2.75;1.63;;;;;;;;;;5034279;28;20116;-75
2022/05/08 11:45:20;;;;;;;3.42;1.80;;;;;;;;;;5034158;28;20021;-75
2022/05/08 11:47:54;;;;;;;1.75;1.65;;;;;;;;;;5034102;28;20384;-75
2022/05/08 11:50:19;;;;;;;2.42;1.70;;;;;;;;;;5034070;28;20078;-75
2022/05/08 11:52:47;;;;;;;2.30;2.10;;;;;;;;;;5033962;28;20025;-75
2022/05/08 11:55:13;;;;;;;2.50;2.30;;;;;;;;;;5033935;28;20036;-75
2022/05/08 11:57:45;;;;;;;4.55;2.08;;;;;;;;;;5016331;28;20021;-75
2022/05/08 12:00:12;;;;;;;1.98;1.52;;;;;;;;;;5033873;28;20038;-75
2022/05/08 12:02:47;;;;;;;1.40;1.30;;;;;;;;;;5034303;28;20032;-75
2022/05/08 12:05:18;;;;;;;1.70;1.55;;;;;;;;;;5033834;28;20053;-75
2022/05/08 12:07:45;;;;;;;2.10;1.30;;;;;;;;;;5033898;28;20061;-75
2022/05/08 12:10:12;;;;;;;2.40;1.30;;;;;;;;;;5033721;28;20100;-75
2022/05/08 12:12:39;;;;;;;2.50;1.80;;;;;;;;;;5033535;28;20409;-75
2022/05/08 12:15:07;;;;;;;1.35;1.20;;;;;;;;;;5033714;28;20044;-75
2022/05/08 12:17:44;;;;;;;2.30;1.60;;;;;;;;;;5033730;28;20452;-75
2022/05/08 12:20:13;;;;;;;5.00;3.20;;;;;;;;;;5033711;28;20392;-75
2022/05/08 12:22:38;;;;;;;2.58;2.38;;;;;;;;;;5033601;28;20018;-75
2022/05/08 12:25:04;;;;;;;3.45;1.80;;;;;;;;;;5033036;28;20029;-75
2022/05/08 12:27:30;;;;;;;8.05;4.97;;;;;;;;;;5033645;28;20489;-75
2022/05/08 12:29:55;;;;;;;2.20;1.77;;;;;;;;;;5033492;28;20116;-75
2022/05/08 12:32:21;;;;;;;2.20;1.58;;;;;;;;;;5033476;28;20028;-75
2022/05/08 12:34:47;;;;;;;2.10;1.63;;;;;;;;;;5033489;28;20043;-75
2022/05/08 12:37:13;;;;;;;2.83;1.60;;;;;;;;;;5033759;28;20022;-75
2022/05/08 12:39:39;;;;;;;3.00;1.67;;;;;;;;;;5033391;28;20469;-75
2022/05/08 12:42:04;;;;;;;1.60;1.48;;;;;;;;;;5033418;28;20029;-75
2022/05/08 12:44:30;;;;;;;2.53;1.70;;;;;;;;;;5033409;28;20037;-75
2022/05/08 12:46:56;;;;;;;2.67;2.47;;;;;;;;;;5033579;28;20021;-75
2022/05/08 12:49:21;;;;;;;2.15;2.05;;;;;;;;;;5016147;28;20037;-75
2022/05/08 12:51:47;;;;;;;1.77;1.67;;;;;;;;;;5015622;28;20104;-75
2022/05/08 12:54:12;;;;;;;1.67;1.52;;;;;;;;;;5033282;28;20037;-75
2022/05/08 12:56:37;;;;;;;28.65;2.80;;;;;;;;;;5033222;28;20076;-75
2022/05/08 13:01:49;;;;;;;1.77;1.25;;;;;;;;;;5033242;28;20075;-75
2022/05/08 13:04:14;;;;;;;1.75;1.65;;;;;;;;;;5033055;28;20064;-75
2022/05/08 13:06:40;;;;;;;1.65;1.25;;;;;;;;;;5033172;28;20065;-75
2022/05/08 13:09:08;;;;;;;2.55;1.30;;;;;;;;;;5033200;28;20024;-75
2022/05/08 13:11:35;;;;;;;1.55;1.30;;;;;;;;;;5033109;28;20077;-75
2022/05/08 13:14:00;;;;;;;5.13;4.38;;;;;;;;;;5033186;28;20029;-75
2022/05/08 13:16:25;;;;;;;2.15;1.98;;;;;;;;;;5033177;28;20025;-75
2022/05/08 13:18:52;;;;;;;1.30;1.30;;;;;;;;;;5033079;28;20040;-75
2022/05/08 13:21:17;;;;;;;1.60;1.35;;;;;;;;;;5033191;28;20014;-75
2022/05/08 13:23:42;;;;;;;1.73;1.63;;;;;;;;;;5032926;28;20462;-75
2022/05/08 13:26:08;;;;;;;1.90;1.65;;;;;;;;;;5032995;28;20025;-75
2022/05/08 13:28:34;;;;;;;1.60;1.50;;;;;;;;;;5032946;28;20390;-75
2022/05/08 13:31:00;;;;;;;1.40;1.30;;;;;;;;;;5032974;28;20018;-75
2022/05/08 13:33:25;;;;;;;1.52;1.40;;;;;;;;;;5032893;28;20041;-75
2022/05/08 13:35:53;;;;;;;1.33;1.20;;;;;;;;;;5034118;28;20029;-75
2022/05/08 13:38:20;;;;;;;1.55;1.42;;;;;;;;;;5036618;28;20029;-75
2022/05/08 13:40:46;;;;;;;1.63;1.52;;;;;;;;;;5036475;28;20543;-75
2022/05/08 13:43:12;;;;;;;1.92;1.52;;;;;;;;;;5036355;28;20034;-75
2022/05/08 13:45:37;;;;;;;1.70;1.60;;;;;;;;;;5036485;28;20030;-75
2022/05/08 13:48:02;;;;;;;1.58;1.48;;;;;;;;;;5036433;28;20264;-75
2022/05/08 13:50:27;;;;;;;2.50;1.80;;;;;;;;;;5036365;28;20101;-75
2022/05/08 13:52:53;;;;;;;1.92;1.67;;;;;;;;;;5036196;28;20053;-75
2022/05/08 13:55:18;;;;;;;1.50;1.40;;;;;;;;;;5036174;28;20018;-75
2022/05/08 13:57:43;;;;;;;2.60;1.70;;;;;;;;;;5036124;28;20337;-75
2022/05/08 14:00:14;;;;;;;1.70;1.60;;;;;;;;;;5036097;28;20022;-75
2022/05/08 14:02:40;;;;;;;2.00;1.60;;;;;;;;;;5036362;28;20450;-75
2022/05/08 14:05:06;;;;;;;1.73;1.60;;;;;;;;;;5036047;28;20021;-75
2022/05/08 14:07:31;;;;;;;2.22;1.67;;;;;;;;;;5036073;28;20477;-75
2022/05/08 14:09:56;;;;;;;3.42;3.22;;;;;;;;;;5036110;28;20025;-75
2022/05/08 14:12:22;;;;;;;1.38;1.27;;;;;;;;;;5035812;28;20049;-75
2022/05/08 14:14:47;;;;;;;2.10;1.90;;;;;;;;;;5035808;28;20038;-75
2022/05/08 14:17:12;;;;;;;17.55;14.25;;;;;;;;;;5035744;28;20040;-75
2022/05/08 14:19:38;;;;;;;2.15;1.60;;;;;;;;;;5035716;28;20021;-75
2022/05/08 14:22:03;;;;;;;2.13;1.58;;;;;;;;;;5035695;28;20021;-75
2022/05/08 14:24:28;;;;;;;1.63;1.52;;;;;;;;;;5035561;28;20018;-75
2022/05/08 14:26:54;;;;;;;1.70;1.60;;;;;;;;;;5035539;28;20029;-75
2022/05/08 14:29:19;;;;;;;2.33;2.00;;;;;;;;;;5035620;28;20485;-75
2022/05/08 14:37:12;;;;;;;2.10;1.90;;;;;;;;;;5035362;28;20048;-75
2022/05/08 14:39:37;;;;;;;1.60;1.50;;;;;;;;;;5035370;28;20025;-75
2022/05/08 14:42:03;;;;;;;1.20;1.20;;;;;;;;;;5035317;28;20276;-75
2022/05/08 14:44:28;;;;;;;1.42;1.30;;;;;;;;;;5035537;28;20485;-75
2022/05/08 14:46:55;;;;;;;2.50;2.30;;;;;;;;;;5034954;28;20025;-75
2022/05/08 14:49:20;;;;;;;2.22;2.05;;;;;;;;;;5035006;28;20131;-75
2022/05/08 14:51:45;;;;;;;3.42;3.13;;;;;;;;;;5035186;28;20119;-75
2022/05/08 14:54:10;;;;;;;2.10;1.90;;;;;;;;;;5035112;28;20092;-75
2022/05/08 14:56:36;;;;;;;3.72;2.30;;;;;;;;;;5034984;28;20410;-75
2022/05/08 14:59:01;;;;;;;2.65;2.42;;;;;;;;;;5034958;28;20017;-75
2022/05/08 15:01:26;;;;;;;2.38;2.17;;;;;;;;;;5034993;28;20040;-75
2022/05/08 15:03:52;;;;;;;14.13;2.97;;;;;;;;;;5034846;28;20048;-75
2022/05/08 15:06:17;;;;;;;4.80;2.40;;;;;;;;;;5017035;28;20272;-75
2022/05/08 15:08:42;;;;;;;4.20;2.33;;;;;;;;;;5017058;28;20021;-75
2022/05/08 15:11:08;;;;;;;2.20;2.10;;;;;;;;;;5034607;28;20113;-75
2022/05/08 15:13:33;;;;;;;2.40;2.20;;;;;;;;;;5034741;28;20040;-75
2022/05/08 15:15:59;;;;;;;2.72;2.10;;;;;;;;;;5034732;28;20091;-75
2022/05/08 15:21:08;;;;;;;5.13;3.08;;;;;;;;;;5034626;28;20264;-75
2022/05/08 15:23:33;;;;;;;2.60;2.13;;;;;;;;;;5034459;28;20439;-75
2022/05/08 15:25:59;;;;;;;2.78;2.30;;;;;;;;;;5034440;28;20744;-75
2022/05/08 15:28:24;;;;;;;2.53;2.38;;;;;;;;;;5034461;28;20029;-75
2022/05/08 15:30:53;;;;;;;2.30;2.10;;;;;;;;;;5034385;28;20021;-75
2022/05/08 15:33:18;;;;;;;2.70;2.50;;;;;;;;;;5034318;28;20072;-75
2022/05/08 15:35:44;;;;;;;3.03;2.80;;;;;;;;;;5034548;28;20512;-75
2022/05/08 15:38:09;;;;;;;4.00;2.30;;;;;;;;;;5034219;28;20052;-75